Time;durP1;ratioP1;P1;durP2;ratioP2;P2;SDS_P1;SDS_P2;PMS_P1;PMS_P2;Temp;Humidity;BMP_temperature;BMP_pressure;BME280_temperature;BME280_humidity;BME280_pressure;Samples;Min_cycle;Max_cycle;Signal;HPM_P1;HPM_P2
2022/11/01 00:01:23;;;;;;;62.37;33.30;;;;;;;6.68;70.07;101312.95;124563;1099;104868;-72
2022/11/01 00:03:54;;;;;;;62.03;32.73;;;;;;;6.72;70.27;101308.85;124606;1099;104166;-72
2022/11/01 00:06:26;;;;;;;64.23;32.93;;;;;;;6.76;70.15;101305.61;124576;1099;104175;-73
2022/11/01 00:08:57;;;;;;;70.03;35.40;;;;;;;6.77;70.16;101303.11;124549;1099;102874;-72
2022/11/01 00:11:28;;;;;;;64.63;33.53;;;;;;;6.69;70.13;101312.16;124518;1099;104245;-72
2022/11/01 00:13:59;;;;;;;65.00;34.10;;;;;;;6.63;70.27;101306.55;124548;1098;102808;-72
2022/11/01 00:16:30;;;;;;;68.53;36.70;;;;;;;6.55;70.18;101305.16;124582;1099;104242;-72
2022/11/01 00:19:01;;;;;;;68.27;34.50;;;;;;;6.48;70.43;101309.05;124565;1099;104179;-73
2022/11/01 00:21:32;;;;;;;67.03;34.03;;;;;;;6.45;70.42;101309.77;124511;1099;104361;-72
2022/11/01 00:24:03;;;;;;;68.17;34.40;;;;;;;6.41;70.36;101310.36;124691;1099;104175;-73
2022/11/01 00:26:34;;;;;;;61.57;31.53;;;;;;;6.38;70.30;101306.66;124583;1099;102842;-72
2022/11/01 00:29:06;;;;;;;68.03;35.73;;;;;;;6.37;70.54;101307.45;124172;1099;104280;-72
2022/11/01 00:31:37;;;;;;;64.57;33.83;;;;;;;6.42;70.55;101306.97;124545;1099;103042;-72
2022/11/01 00:34:08;;;;;;;65.43;33.67;;;;;;;6.46;70.61;101314.16;124528;1099;104270;-72
2022/11/01 00:36:39;;;;;;;65.50;34.07;;;;;;;6.48;70.67;101306.44;124571;1098;104265;-72
2022/11/01 00:39:14;;;;;;;63.77;32.60;;;;;;;6.49;70.46;101308.25;124574;1099;104271;-72
2022/11/01 00:41:45;;;;;;;59.13;33.20;;;;;;;6.52;70.55;101300.63;124581;1099;104271;-72
2022/11/01 00:44:16;;;;;;;66.80;32.93;;;;;;;6.53;70.82;101301.52;124579;1099;104245;-73
2022/11/01 00:46:47;;;;;;;60.70;32.90;;;;;;;6.56;70.61;101304.33;124514;1099;104171;-72
2022/11/01 00:49:18;;;;;;;62.70;33.13;;;;;;;6.56;70.81;101305.26;124555;1099;104175;-73
2022/11/01 00:51:51;;;;;;;61.27;30.60;;;;;;;6.51;70.74;101300.53;124598;1099;104172;-73
2022/11/01 00:54:22;;;;;;;62.77;32.70;;;;;;;6.47;70.61;101307.27;124620;1099;104245;-72
2022/11/01 00:56:53;;;;;;;60.33;30.93;;;;;;;6.38;70.78;101307.55;124600;1099;103648;-72
2022/11/01 00:59:24;;;;;;;64.10;32.47;;;;;;;6.32;70.65;101306.27;124503;1098;104211;-72
2022/11/01 01:01:55;;;;;;;60.70;31.37;;;;;;;6.27;70.71;101298.14;124535;1099;104165;-72
2022/11/01 01:04:27;;;;;;;64.13;31.90;;;;;;;6.19;70.98;101302.84;124569;1099;104245;-73
2022/11/01 01:06:58;;;;;;;61.60;30.43;;;;;;;6.10;71.36;101302.23;124605;1099;104224;-73
2022/11/01 01:09:29;;;;;;;60.03;30.87;;;;;;;6.03;71.45;101303.53;124543;1099;103479;-72
2022/11/01 01:12:00;;;;;;;61.93;30.73;;;;;;;5.98;71.49;101309.23;124545;1099;104878;-73
2022/11/01 01:14:32;;;;;;;60.77;31.17;;;;;;;5.93;71.62;101308.88;124563;1099;104178;-73
2022/11/01 01:17:03;;;;;;;60.13;29.73;;;;;;;5.89;72.12;101304.25;124567;1099;104252;-73
2022/11/01 01:19:35;;;;;;;56.30;30.10;;;;;;;5.84;71.86;101300.45;124510;1099;104220;-72
2022/11/01 01:22:06;;;;;;;64.37;32.40;;;;;;;5.81;71.84;101308.05;124576;1099;104278;-72
2022/11/01 01:24:37;;;;;;;63.75;31.50;;;;;;;5.76;72.45;101302.53;124523;1099;102834;-73
2022/11/01 01:27:08;;;;;;;60.57;30.47;;;;;;;5.70;72.19;101296.91;124543;1098;104248;-73
2022/11/01 01:29:40;;;;;;;59.47;30.07;;;;;;;5.64;71.81;101300.02;124486;1099;113171;-72
2022/11/01 01:32:14;;;;;;;58.50;29.50;;;;;;;5.58;72.25;101297.88;124537;1099;104274;-73
2022/11/01 01:34:46;;;;;;;59.47;30.07;;;;;;;5.57;71.82;101303.88;124527;1099;104248;-73
2022/11/01 01:37:19;;;;;;;59.80;30.20;;;;;;;5.53;72.19;101299.28;124515;1099;104346;-72
2022/11/01 01:39:50;;;;;;;60.43;31.60;;;;;;;5.49;72.49;101298.96;124579;1099;102412;-72
2022/11/01 01:42:27;;;;;;;61.00;30.50;;;;;;;5.41;72.73;101298.43;124515;1099;104245;-73
2022/11/01 01:45:23;;;;;;;59.30;30.27;;;;;;;5.33;73.16;101303.10;124579;1099;104235;-72
2022/11/01 01:47:58;;;;;;;59.67;30.67;;;;;;;5.25;72.94;101303.35;124590;1099;104329;-72
2022/11/01 01:50:36;;;;;;;64.20;30.40;;;;;;;5.18;72.55;101308.13;124510;1099;104283;-72
2022/11/01 01:53:11;;;;;;;64.10;30.30;;;;;;;5.14;72.98;101305.20;124537;1099;104280;-72
2022/11/01 01:55:47;;;;;;;59.20;29.00;;;;;;;5.13;72.96;101306.02;124548;1099;104276;-73
2022/11/01 01:58:22;;;;;;;57.27;28.87;;;;;;;5.10;72.92;101314.50;124539;1099;101827;-73
2022/11/01 02:00:54;;;;;;;59.13;28.57;;;;;;;5.04;72.65;101301.95;124581;1098;102975;-72
2022/11/01 02:03:28;;;;;;;55.73;28.83;;;;;;;5.02;73.69;101313.06;124526;1099;104245;-72
2022/11/01 02:06:03;;;;;;;55.57;27.43;;;;;;;4.98;72.96;101304.11;124586;1099;104166;-72
2022/11/01 02:08:35;;;;;;;57.50;28.50;;;;;;;5.00;73.28;101306.83;124612;1099;104198;-72
2022/11/01 02:11:09;;;;;;;53.37;27.07;;;;;;;5.04;73.47;101304.55;124558;1099;104194;-72
2022/11/01 02:13:40;;;;;;;57.67;27.93;;;;;;;5.04;73.54;101307.16;124531;1099;104249;-72
2022/11/01 02:16:26;;;;;;;52.27;25.77;;;;;;;5.03;73.68;101309.64;124532;1099;104560;-73
2022/11/01 02:19:06;;;;;;;53.93;26.33;;;;;;;4.98;73.35;101311.92;124542;1099;104274;-72
2022/11/01 02:21:51;;;;;;;54.57;26.87;;;;;;;4.94;73.68;101307.31;124567;1099;104678;-72
2022/11/01 02:24:47;;;;;;;59.80;26.63;;;;;;;4.91;73.87;101314.89;124596;1099;104335;-72
2022/11/01 02:27:23;;;;;;;54.17;26.17;;;;;;;4.84;74.13;101310.04;124580;1099;104277;-72
2022/11/01 02:30:08;;;;;;;50.67;25.60;;;;;;;4.74;74.05;101305.89;124578;1099;104242;-72
2022/11/01 02:32:55;;;;;;;52.97;25.97;;;;;;;4.70;74.54;101321.16;124576;1099;104341;-73
2022/11/01 02:35:38;;;;;;;54.10;25.63;;;;;;;4.66;74.24;101330.44;124523;1099;104210;-72
2022/11/01 02:38:12;;;;;;;53.80;25.83;;;;;;;4.60;74.65;101328.28;124626;1099;104190;-72
2022/11/01 02:40:52;;;;;;;46.98;24.27;;;;;;;4.57;74.95;101328.06;124640;1099;102850;-72
2022/11/01 02:43:29;;;;;;;51.37;24.67;;;;;;;4.54;74.76;101329.54;124526;1099;104322;-72
2022/11/01 02:46:59;;;;;;;51.10;24.30;;;;;;;4.51;74.54;101332.80;124601;1099;104219;-72
2022/11/01 02:48:57;;;;;;;53.00;25.07;;;;;;;4.49;75.22;101334.40;124562;1099;102774;-73
2022/11/01 02:51:30;;;;;;;48.83;23.47;;;;;;;4.46;74.29;101331.58;124559;1099;102882;-73
2022/11/01 02:54:05;;;;;;;49.37;23.97;;;;;;;4.45;74.71;101335.84;124571;1099;104238;-73
2022/11/01 02:56:37;;;;;;;46.27;22.37;;;;;;;4.46;74.64;101337.66;124543;1099;104242;-72
2022/11/01 02:59:14;;;;;;;49.30;23.77;;;;;;;4.48;74.83;101341.27;124567;1099;104251;-73
2022/11/01 03:01:50;;;;;;;47.90;23.83;;;;;;;4.46;74.93;101344.57;124552;1099;110713;-72
2022/11/01 03:04:21;;;;;;;48.93;23.63;;;;;;;4.42;74.94;101339.92;124563;1099;103673;-72
2022/11/01 03:06:57;;;;;;;46.83;22.77;;;;;;;4.40;75.14;101350.20;124589;1099;104317;-73
2022/11/01 03:09:29;;;;;;;47.67;22.60;;;;;;;4.39;74.72;101350.09;124546;1099;104221;-73
2022/11/01 03:12:04;;;;;;;43.57;21.50;;;;;;;4.38;74.53;101350.88;124529;1099;104259;-73
2022/11/01 03:14:41;;;;;;;50.07;22.63;;;;;;;4.39;74.95;101347.50;124527;1099;104217;-73
2022/11/01 03:17:19;;;;;;;44.63;22.03;;;;;;;4.43;74.77;101355.63;124584;1099;104215;-73
2022/11/01 03:19:52;;;;;;;46.20;21.90;;;;;;;4.45;74.75;101356.64;124571;1099;103369;-72
2022/11/01 03:22:30;;;;;;;45.58;21.93;;;;;;;4.45;74.77;101360.94;124553;1099;104207;-72
2022/11/01 03:25:37;;;;;;;45.37;22.10;;;;;;;4.46;74.31;101358.45;124554;1099;102838;-73
2022/11/01 03:28:04;;;;;;;45.10;21.20;;;;;;;4.53;74.81;101364.11;124569;1099;104264;-72
2022/11/01 03:30:40;;;;;;;48.13;22.93;;;;;;;4.52;74.86;101363.22;124615;1098;104182;-72
2022/11/01 03:33:14;;;;;;;47.17;21.70;;;;;;;4.53;74.58;101358.91;124601;1098;104245;-73
2022/11/01 03:35:48;;;;;;;45.63;22.52;;;;;;;4.52;74.33;101358.02;124621;1099;104166;-72
2022/11/01 03:38:26;;;;;;;41.70;20.90;;;;;;;4.55;74.52;101357.31;124587;1099;104194;-72
2022/11/01 03:41:04;;;;;;;43.03;20.27;;;;;;;4.57;74.43;101354.05;124568;1099;104245;-72
2022/11/01 03:43:37;;;;;;;46.10;22.50;;;;;;;4.54;75.09;101364.22;124622;1099;104335;-72
2022/11/01 03:46:09;;;;;;;47.20;21.73;;;;;;;4.47;74.71;101359.35;124618;1099;104159;-72
2022/11/01 03:48:42;;;;;;;42.57;21.33;;;;;;;4.38;74.60;101364.79;124555;1098;104272;-72
2022/11/01 03:51:13;;;;;;;42.30;21.17;;;;;;;4.30;74.96;101358.09;124534;1099;102793;-72
2022/11/01 03:53:44;;;;;;;45.57;21.27;;;;;;;4.24;75.25;101352.44;124595;1099;104264;-72
2022/11/01 03:56:15;;;;;;;47.17;21.80;;;;;;;4.18;74.92;101358.10;124598;1099;104830;-72
2022/11/01 03:58:46;;;;;;;44.57;21.00;;;;;;;4.15;74.58;101355.27;124537;1099;104194;-72
2022/11/01 04:01:18;;;;;;;46.20;21.13;;;;;;;4.11;75.49;101353.22;124562;1099;104382;-72
2022/11/01 04:03:49;;;;;;;45.63;20.57;;;;;;;4.08;75.21;101355.59;124604;1099;104283;-73
2022/11/01 04:06:20;;;;;;;40.60;20.83;;;;;;;4.06;75.69;101351.98;124587;1099;104651;-73
2022/11/01 04:08:51;;;;;;;42.10;20.13;;;;;;;4.01;75.13;101358.53;124571;1099;104245;-73
2022/11/01 04:11:22;;;;;;;45.73;21.63;;;;;;;3.95;75.59;101354.66;124594;1099;104251;-73
2022/11/01 04:20:31;;;;;;;44.40;21.10;;;;;;;3.90;75.47;101350.82;124558;1098;104082;-73
2022/11/01 04:22:31;;;;;;;50.43;21.87;;;;;;;3.77;75.45;101361.97;124719;1099;104169;-73
2022/11/01 04:25:02;;;;;;;41.87;20.40;;;;;;;3.77;75.72;101356.78;124839;1099;102835;-72
2022/11/01 04:27:33;;;;;;;45.90;21.10;;;;;;;3.78;76.26;101362.86;124680;1099;104169;-73
2022/11/01 04:30:06;;;;;;;45.87;21.43;;;;;;;3.75;76.10;101355.73;124676;1099;104083;-74
2022/11/01 04:32:38;;;;;;;43.10;20.80;;;;;;;3.73;75.57;101361.62;124707;1099;103116;-76
2022/11/01 04:35:11;;;;;;;47.03;22.77;;;;;;;3.70;76.25;101361.38;124299;1099;103193;-76
2022/11/01 04:37:42;;;;;;;40.27;20.60;;;;;;;3.68;75.65;101360.37;124859;1099;104284;-74
2022/11/01 04:40:14;;;;;;;43.65;20.60;;;;;;;3.68;75.90;101362.97;124519;1099;104294;-74
2022/11/01 04:42:45;;;;;;;47.00;20.30;;;;;;;3.64;75.94;101366.09;124637;1099;104296;-75
2022/11/01 04:45:17;;;;;;;40.23;19.10;;;;;;;3.60;76.28;101368.45;124706;1099;102595;-75
2022/11/01 04:47:51;;;;;;;40.37;18.10;;;;;;;3.58;75.98;101369.11;124778;1098;104166;-75
2022/11/01 04:50:22;;;;;;;39.87;20.13;;;;;;;3.56;75.96;101368.98;124781;1099;102059;-74
2022/11/01 04:52:53;;;;;;;42.00;20.63;;;;;;;3.57;75.87;101370.81;124653;1099;104322;-75
2022/11/01 04:55:24;;;;;;;43.60;18.87;;;;;;;3.60;76.07;101367.56;124486;1099;104272;-75
2022/11/01 04:57:56;;;;;;;40.93;19.60;;;;;;;3.58;75.59;101367.44;124671;1099;104198;-74
2022/11/01 05:00:27;;;;;;;43.43;19.37;;;;;;;3.60;76.35;101368.45;124677;1099;104204;-75
2022/11/01 05:03:04;;;;;;;39.97;18.87;;;;;;;3.59;76.56;101369.23;124731;1099;104271;-75
2022/11/01 05:05:37;;;;;;;43.43;19.03;;;;;;;3.59;75.94;101370.93;124766;1099;104206;-74
2022/11/01 05:08:10;;;;;;;44.87;18.80;;;;;;;3.58;76.47;101375.23;124798;1099;104172;-75
2022/11/01 05:10:43;;;;;;;41.03;18.37;;;;;;;3.55;77.05;101379.25;124782;1099;101829;-75
2022/11/01 05:13:14;;;;;;;43.17;19.07;;;;;;;3.52;76.55;101374.75;124755;1099;104238;-75
2022/11/01 05:15:45;;;;;;;47.90;19.77;;;;;;;3.53;77.37;101386.02;124708;1099;104191;-74
2022/11/01 05:18:17;;;;;;;52.23;20.07;;;;;;;3.51;77.29;101379.82;124640;1099;103017;-75
2022/11/01 05:20:48;;;;;;;42.90;19.27;;;;;;;3.47;76.97;101370.87;124675;1099;104268;-75
2022/11/01 05:23:19;;;;;;;40.57;18.60;;;;;;;3.46;77.07;101374.27;124741;1098;104249;-75
2022/11/01 05:25:50;;;;;;;49.00;19.70;;;;;;;3.45;76.81;101376.74;124744;1098;101906;-75
2022/11/01 05:28:22;;;;;;;43.87;19.03;;;;;;;3.44;77.88;101377.52;124712;1099;104179;-74
2022/11/01 05:30:53;;;;;;;42.00;19.93;;;;;;;3.46;77.15;101379.46;124706;1099;104169;-75
2022/11/01 05:33:24;;;;;;;39.47;18.77;;;;;;;3.47;77.28;101380.35;124767;1099;102815;-75
2022/11/01 05:35:55;;;;;;;40.90;19.17;;;;;;;3.47;77.15;101378.65;124735;1099;104372;-75
2022/11/01 05:38:27;;;;;;;41.90;19.50;;;;;;;3.48;77.05;101380.47;124690;1099;102789;-75
2022/11/01 05:41:01;;;;;;;40.00;19.10;;;;;;;3.54;77.36;101378.36;124857;1099;104248;-75
2022/11/01 05:43:32;;;;;;;45.27;20.43;;;;;;;3.56;78.01;101371.59;124611;1099;104175;-74
2022/11/01 05:46:06;;;;;;;42.53;19.20;;;;;;;3.59;78.62;101376.13;124547;1099;102462;-74
2022/11/01 05:48:37;;;;;;;43.23;19.60;;;;;;;3.64;77.26;101374.78;124518;1099;104179;-74
2022/11/01 05:51:08;;;;;;;43.23;20.03;;;;;;;3.68;77.90;101374.23;124513;1099;102982;-74
2022/11/01 05:53:39;;;;;;;40.00;18.63;;;;;;;3.76;77.93;101374.83;124519;1098;104303;-76
2022/11/01 05:56:10;;;;;;;41.20;18.87;;;;;;;3.84;77.64;101367.63;124501;1099;104679;-75
2022/11/01 05:58:41;;;;;;;39.90;19.17;;;;;;;3.95;77.84;101367.64;124565;1099;104239;-75
2022/11/01 06:01:13;;;;;;;45.07;19.57;;;;;;;4.13;78.48;101367.25;124537;1099;104271;-75
2022/11/01 06:03:44;;;;;;;40.13;18.03;;;;;;;4.29;78.08;101369.30;124602;1099;104245;-76
2022/11/01 06:06:15;;;;;;;42.37;17.67;;;;;;;4.33;78.17;101376.52;124598;1098;102231;-75
2022/11/01 06:08:46;;;;;;;37.37;17.23;;;;;;;4.25;79.15;101375.05;124578;1099;104249;-76
2022/11/01 06:11:17;;;;;;;39.73;17.70;;;;;;;4.20;78.78;101379.89;124566;1099;104453;-76
2022/11/01 06:13:52;;;;;;;38.17;18.63;;;;;;;4.19;79.02;101379.78;124584;1099;102251;-75
2022/11/01 06:16:24;;;;;;;39.93;18.80;;;;;;;4.23;77.94;101379.23;124609;1098;104173;-75
2022/11/01 06:18:56;;;;;;;40.03;19.00;;;;;;;4.30;77.84;101374.61;124550;1099;104303;-75
2022/11/01 06:21:28;;;;;;;40.23;19.30;;;;;;;4.50;77.75;101381.30;124626;1099;102230;-76
2022/11/01 06:23:59;;;;;;;41.57;19.30;;;;;;;4.74;78.44;101383.00;124704;1099;102033;-76
2022/11/01 06:26:30;;;;;;;43.35;19.75;;;;;;;4.93;78.09;101380.92;124616;1099;103670;-75
2022/11/01 06:29:03;;;;;;;41.53;19.07;;;;;;;5.10;77.97;101373.44;124371;1099;102397;-75
2022/11/01 06:31:35;;;;;;;44.80;20.60;;;;;;;5.27;77.71;101370.34;124502;1099;104287;-75
2022/11/01 06:34:06;;;;;;;40.73;17.40;;;;;;;5.40;78.05;101370.39;124688;1099;103058;-75
2022/11/01 06:36:37;;;;;;;38.03;18.93;;;;;;;5.43;77.72;101363.61;124588;1099;104361;-75
2022/11/01 06:39:09;;;;;;;39.37;17.80;;;;;;;5.48;77.84;101367.43;124507;1099;104235;-75
2022/11/01 06:41:40;;;;;;;36.87;17.90;;;;;;;5.57;77.59;101371.57;124546;1099;104245;-74
2022/11/01 06:44:13;;;;;;;38.37;18.17;;;;;;;5.71;77.91;101372.53;124545;1099;104176;-75
2022/11/01 06:46:45;;;;;;;39.07;18.87;;;;;;;5.86;77.67;101363.95;124515;1098;102809;-75
2022/11/01 06:49:17;;;;;;;42.27;21.00;;;;;;;5.97;77.62;101362.13;125855;1098;102159;-75
2022/11/01 06:51:48;;;;;;;48.07;22.00;;;;;;;6.08;77.96;101367.27;124593;1099;104172;-75
2022/11/01 06:54:21;;;;;;;64.83;30.47;;;;;;;6.16;77.43;101378.22;124200;1099;104169;-75
2022/11/01 06:56:52;;;;;;;54.97;30.17;;;;;;;6.24;77.52;101371.80;124641;1099;104252;-74
2022/11/01 06:59:23;;;;;;;44.97;24.37;;;;;;;6.36;77.80;101374.34;124601;1099;104335;-75
2022/11/01 07:01:58;;;;;;;40.57;21.27;;;;;;;6.48;77.73;101380.38;124545;1099;104245;-75
2022/11/01 07:04:33;;;;;;;37.70;19.67;;;;;;;6.51;77.38;101366.61;125948;1098;102899;-75
2022/11/01 07:07:25;;;;;;;38.00;19.47;;;;;;;6.46;77.36;101358.48;124500;1099;103642;-76
2022/11/01 07:09:57;;;;;;;41.60;20.47;;;;;;;6.68;77.30;101375.55;124641;1099;103069;-76
2022/11/01 07:12:46;;;;;;;39.83;20.33;;;;;;;6.78;77.53;101377.97;125651;1098;104182;-75
2022/11/01 07:15:31;;;;;;;37.17;18.93;;;;;;;6.90;77.25;101370.01;124305;1099;104241;-76
2022/11/01 07:18:15;;;;;;;39.00;19.53;;;;;;;6.97;77.06;101376.55;124973;1099;103820;-75
2022/11/01 07:20:46;;;;;;;40.65;18.55;;;;;;;7.07;77.20;101378.92;124181;1099;104331;-75
2022/11/01 07:23:28;;;;;;;38.77;18.23;;;;;;;7.18;77.37;101367.48;124583;1099;104339;-75
2022/11/01 07:25:59;;;;;;;37.27;17.73;;;;;;;7.31;77.15;101368.25;124659;1099;104399;-75
2022/11/01 07:28:41;;;;;;;36.53;16.73;;;;;;;7.44;77.28;101359.47;124900;1100;104060;-76
2022/11/01 07:31:12;;;;;;;41.90;17.13;;;;;;;7.56;76.91;101361.12;124598;1099;102519;-75
2022/11/01 07:33:43;;;;;;;33.67;16.30;;;;;;;7.70;76.72;101364.58;124152;1100;104258;-76
2022/11/01 07:36:15;;;;;;;30.50;14.67;;;;;;;7.83;76.72;101366.21;124539;1099;103100;-76
2022/11/01 07:38:46;;;;;;;32.65;13.30;;;;;;;7.95;76.71;101358.23;124339;1098;104300;-75
2022/11/01 07:41:18;;;;;;;29.73;13.70;;;;;;;8.08;76.65;101355.52;124612;1099;104326;-76
2022/11/01 07:43:49;;;;;;;31.93;13.03;;;;;;;8.21;76.17;101346.70;124701;1099;104211;-76
2022/11/01 07:46:25;;;;;;;27.53;12.83;;;;;;;8.35;76.63;101342.28;124628;1099;102796;-75
2022/11/01 07:48:59;;;;;;;32.13;15.17;;;;;;;8.49;76.23;101348.31;124202;1099;104422;-75
2022/11/01 07:51:31;;;;;;;35.97;15.93;;;;;;;8.60;76.76;101339.39;124580;1099;104621;-74
2022/11/01 07:54:04;;;;;;;30.40;13.83;;;;;;;8.70;76.25;101335.58;124623;1099;104229;-74
2022/11/01 07:56:40;;;;;;;36.43;15.07;;;;;;;8.83;75.11;101333.65;124629;1099;104175;-75
2022/11/01 07:59:37;;;;;;;35.50;16.50;;;;;;;8.95;74.33;101324.76;124987;1102;104294;-74
2022/11/01 08:02:12;;;;;;;34.00;15.77;;;;;;;9.03;73.04;101326.91;125866;1102;101781;-74
2022/11/01 08:04:50;;;;;;;32.37;16.27;;;;;;;9.13;74.69;101332.73;124040;1102;101939;-74
2022/11/01 08:07:22;;;;;;;34.43;16.57;;;;;;;9.23;73.79;101328.89;124008;1102;103085;-74
2022/11/01 08:09:54;;;;;;;32.70;16.67;;;;;;;9.37;73.86;101331.38;123901;1102;104111;-74
2022/11/01 08:12:25;;;;;;;35.67;17.53;;;;;;;9.50;74.18;101331.19;123920;1102;102731;-74
2022/11/01 08:14:57;;;;;;;34.37;17.10;;;;;;;9.62;73.48;101330.95;123971;1102;102178;-76
2022/11/01 08:17:28;;;;;;;38.65;17.85;;;;;;;9.69;73.18;101323.50;124003;1102;104258;-76
2022/11/01 08:20:03;;;;;;;39.50;18.20;;;;;;;9.82;72.70;101325.03;123956;1102;104175;-75
2022/11/01 08:22:38;;;;;;;36.90;18.10;;;;;;;9.99;73.48;101320.66;123902;1102;104166;-75
2022/11/01 08:25:11;;;;;;;32.83;16.53;;;;;;;10.13;71.99;101317.81;123873;1102;104175;-75
2022/11/01 08:27:43;;;;;;;34.13;16.17;;;;;;;10.24;71.80;101321.91;123930;1103;102899;-77
2022/11/01 08:30:17;;;;;;;36.50;17.13;;;;;;;10.32;72.59;101315.30;123987;1102;104378;-76
2022/11/01 08:32:52;;;;;;;;;;;;;;;10.41;70.35;101313.17;123956;1103;104242;-75
2022/11/01 08:35:25;;;;;;;32.80;15.20;;;;;;;10.47;70.56;101309.04;123898;1102;104352;-75
2022/11/01 08:37:57;;;;;;;33.33;15.03;;;;;;;10.60;71.19;101312.34;123886;1106;104223;-74
2022/11/01 08:40:29;;;;;;;31.97;14.97;;;;;;;10.78;71.56;101316.66;123919;1102;104230;-74
2022/11/01 08:43:01;;;;;;;34.27;16.33;;;;;;;10.95;71.48;101309.59;124064;1105;104284;-76
2022/11/01 08:45:35;;;;;;;34.27;14.57;;;;;;;11.11;71.40;101305.95;124011;1102;104229;-75
2022/11/01 08:51:38;;;;;;;33.83;13.97;;;;;;;11.33;70.67;101298.23;124084;1105;104256;-72
2022/11/01 08:54:12;;;;;;;35.17;15.57;;;;;;;11.56;70.85;101302.72;124042;1103;102271;-72
2022/11/01 08:56:44;;;;;;;33.90;15.43;;;;;;;11.67;69.35;101309.34;124075;1102;104303;-72
2022/11/01 08:59:16;;;;;;;34.60;15.43;;;;;;;11.77;70.04;101301.04;124147;1102;104282;-72
2022/11/01 09:01:50;;;;;;;33.23;15.57;;;;;;;11.88;70.20;101296.25;124181;1102;103347;-72
2022/11/01 09:04:20;;;;;;;;;;;;;;;11.95;68.21;101297.44;124088;1102;104217;-72
2022/11/01 09:06:52;;;;;;;33.87;16.47;;;;;;;12.07;69.86;101295.33;124665;1102;101804;-74
2022/11/01 09:09:28;;;;;;;35.65;17.35;;;;;;;12.17;69.57;101292.27;124137;1102;104242;-75
2022/11/01 09:12:00;;;;;;;32.03;16.93;;;;;;;12.25;69.52;101284.69;124090;1102;103487;-74
2022/11/01 09:14:32;;;;;;;32.27;16.17;;;;;;;12.28;67.58;101290.08;123993;1102;104374;-73
2022/11/01 09:17:06;;;;;;;39.40;17.73;;;;;;;12.29;68.15;101283.07;123999;1102;104688;-76
2022/11/01 09:19:38;;;;;;;35.43;16.57;;;;;;;12.44;68.66;101288.08;124044;1102;104245;-74
2022/11/01 09:22:12;;;;;;;33.37;17.37;;;;;;;12.52;68.16;101284.02;123997;1105;102427;-75
2022/11/01 09:24:46;;;;;;;42.53;18.77;;;;;;;12.62;68.06;101280.00;124032;1105;104287;-75
2022/11/01 09:27:23;;;;;;;38.30;17.57;;;;;;;12.73;67.75;101283.95;124004;1105;104322;-75
2022/11/01 09:29:58;;;;;;;40.63;17.83;;;;;;;12.87;67.87;101288.05;124125;1102;104201;-75
2022/11/01 09:32:30;;;;;;;39.60;17.53;;;;;;;12.99;68.20;101279.70;123975;1102;109271;-75
2022/11/01 09:35:02;;;;;;;39.83;17.53;;;;;;;13.08;67.26;101274.78;123997;1102;104176;-75
2022/11/01 09:37:37;;;;;;;37.57;18.57;;;;;;;13.04;66.17;101274.61;124008;1102;104232;-75
2022/11/01 09:40:07;;;;;;;;;;;;;;;12.99;61.49;101268.27;124045;1102;102838;-76
2022/11/01 09:42:44;;;;;;;33.50;16.00;;;;;;;12.98;64.56;101264.75;124183;1102;104233;-76
2022/11/01 09:45:20;;;;;;;35.90;16.67;;;;;;;12.99;64.65;101266.53;124089;1102;104176;-77
2022/11/01 09:47:56;;;;;;;37.53;17.13;;;;;;;13.08;64.64;101266.88;124151;1102;104098;-76
2022/11/01 09:50:28;;;;;;;;;;;;;;;13.14;63.33;101260.95;124107;1105;103544;-76
2022/11/01 09:53:06;;;;;;;34.10;16.13;;;;;;;13.23;64.66;101268.28;124061;1102;107542;-75
2022/11/01 09:55:48;;;;;;;37.57;17.13;;;;;;;13.33;65.10;101261.64;124091;1102;104176;-74
2022/11/01 09:58:30;;;;;;;36.20;15.20;;;;;;;13.43;64.40;101259.42;124059;1102;104255;-75
2022/11/01 10:01:22;;;;;;;33.77;16.27;;;;;;;13.51;64.20;101253.52;124035;1102;105742;-75
2022/11/01 10:04:16;;;;;;;32.37;15.57;;;;;;;13.63;64.67;101252.23;124041;1105;103183;-75
2022/11/01 10:06:56;;;;;;;30.33;15.03;;;;;;;13.76;64.06;101258.82;124192;1101;104765;-76
2022/11/01 10:09:47;;;;;;;28.70;14.53;;;;;;;13.87;64.49;101247.72;124211;1102;103855;-75
2022/11/01 10:12:46;;;;;;;28.87;13.93;;;;;;;13.93;63.90;101240.94;124180;1102;103649;-75
2022/11/01 10:15:36;;;;;;;31.90;13.83;;;;;;;13.96;62.77;101237.48;124121;1102;104299;-73
2022/11/01 10:18:19;;;;;;;28.23;12.70;;;;;;;13.87;59.16;101227.53;124295;1102;103250;-75
2022/11/01 10:20:55;;;;;;;30.40;14.23;;;;;;;13.92;62.19;101225.94;124224;1102;104271;-75
2022/11/01 10:23:41;;;;;;;36.63;14.50;;;;;;;13.99;62.04;101219.12;124311;1102;102350;-75
2022/11/01 10:26:24;;;;;;;31.40;12.97;;;;;;;14.07;61.51;101219.38;124234;1102;102892;-75
2022/11/01 10:29:11;;;;;;;28.07;13.60;;;;;;;14.12;60.87;101218.69;124252;1102;102812;-76
2022/11/01 10:31:59;;;;;;;28.53;13.90;;;;;;;14.14;60.22;101216.09;124107;1102;102362;-75
2022/11/01 10:34:46;;;;;;;25.50;12.67;;;;;;;14.15;60.08;101208.23;124853;1102;102534;-75
2022/11/01 10:37:27;;;;;;;30.67;13.70;;;;;;;14.17;59.93;101205.64;124925;1102;104229;-75
2022/11/01 10:40:09;;;;;;;28.80;12.90;;;;;;;14.19;59.88;101202.22;124323;1102;102448;-75
2022/11/01 10:42:45;;;;;;;29.70;12.60;;;;;;;14.24;60.30;101193.53;124861;1102;102280;-76
2022/11/01 10:45:46;;;;;;;28.53;12.80;;;;;;;14.30;59.76;101191.97;124458;1102;102245;-76
2022/11/01 10:48:35;;;;;;;26.07;12.30;;;;;;;14.38;59.68;101185.20;125969;1102;104335;-75
2022/11/01 10:51:17;;;;;;;25.10;11.47;;;;;;;14.44;58.77;101188.88;124949;1102;102367;-75
2022/11/01 10:53:54;;;;;;;26.63;11.60;;;;;;;14.49;58.89;101181.98;124917;1102;102548;-75
2022/11/01 10:56:35;;;;;;;27.33;11.33;;;;;;;14.54;58.25;101185.68;124967;1102;102368;-75
2022/11/01 10:59:19;;;;;;;24.13;11.17;;;;;;;14.58;59.06;101176.98;124963;1102;103408;-75
2022/11/01 11:01:55;;;;;;;28.13;11.17;;;;;;;14.61;57.92;101174.47;124761;1102;104271;-75
2022/11/01 11:04:30;;;;;;;24.37;10.67;;;;;;;14.65;58.61;101171.08;124987;1101;104243;-76
2022/11/01 11:07:16;;;;;;;25.67;11.60;;;;;;;14.62;56.38;101170.98;124907;1102;104332;-75
2022/11/01 11:09:50;;;;;;;28.13;11.10;;;;;;;14.61;56.66;101177.11;124848;1102;104299;-74
2022/11/01 11:12:26;;;;;;;25.97;11.22;;;;;;;14.64;56.80;101173.67;125907;1101;102948;-75
2022/11/01 11:15:03;;;;;;;23.27;10.40;;;;;;;14.66;56.46;101172.88;124167;1102;107145;-74
2022/11/01 11:17:42;;;;;;;24.37;11.00;;;;;;;14.68;57.10;101160.61;124061;1102;102969;-74
2022/11/01 11:20:25;;;;;;;25.87;10.80;;;;;;;14.71;57.12;101168.63;124200;1102;104227;-74
2022/11/01 11:23:01;;;;;;;28.13;10.80;;;;;;;14.75;57.23;101166.95;124217;1102;102818;-74
2022/11/01 11:25:37;;;;;;;27.30;10.63;;;;;;;14.74;57.04;101160.78;124310;1102;104169;-76
2022/11/01 11:28:24;;;;;;;27.20;11.50;;;;;;;14.73;56.68;101161.63;124264;1102;104361;-75
2022/11/01 11:30:57;;;;;;;24.43;10.83;;;;;;;14.74;56.37;101158.14;124379;1102;104274;-77
2022/11/01 11:33:29;;;;;;;24.05;10.65;;;;;;;14.75;55.88;101143.17;124785;1102;103661;-76
2022/11/01 11:36:03;;;;;;;30.57;10.63;;;;;;;14.74;56.30;101147.58;124692;1101;102601;-76
2022/11/01 11:38:47;;;;;;;25.67;10.57;;;;;;;14.75;56.14;101148.46;124623;1102;104178;-75
2022/11/01 11:41:31;;;;;;;25.27;10.53;;;;;;;14.71;52.98;101136.04;124313;1102;102582;-74
2022/11/01 11:44:04;;;;;;;23.87;10.27;;;;;;;14.69;52.87;101135.99;124228;1102;102489;-74